Time;durP1;ratioP1;P1;durP2;ratioP2;P2;SDS_P1;SDS_P2;PMS_P1;PMS_P2;Temp;Humidity;BMP_temperature;BMP_pressure;BME280_temperature;BME280_humidity;BME280_pressure;Samples;Min_cycle;Max_cycle;Signal;HPM_P1;HPM_P2
2024/04/11 00:01:15;;;;;;;6.78;2.75;;;12.60;88.70;;;;;;5539461;25;20012;-78
2024/04/11 00:04:01;;;;;;;4.13;2.50;;;12.60;88.70;;;;;;5526029;25;20004;-76
2024/04/11 00:06:47;;;;;;;6.25;2.75;;;12.60;88.70;;;;;;5523360;25;20010;-76
2024/04/11 00:09:33;;;;;;;4.30;2.70;;;12.60;88.60;;;;;;5560936;25;20017;-77
2024/04/11 00:12:19;;;;;;;8.75;3.22;;;12.60;88.90;;;;;;5532243;25;20029;-77
2024/04/11 00:15:05;;;;;;;5.10;2.92;;;12.60;89.00;;;;;;5546452;25;19997;-77
2024/04/11 00:17:52;;;;;;;4.57;3.22;;;12.60;89.10;;;;;;5550718;25;19993;-77
2024/04/11 00:20:38;;;;;;;4.88;3.17;;;12.50;89.10;;;;;;5524156;25;20025;-77
2024/04/11 00:23:24;;;;;;;4.68;2.35;;;12.50;89.20;;;;;;5539685;25;20001;-77
2024/04/11 00:26:10;;;;;;;5.75;2.80;;;12.40;89.20;;;;;;5552637;25;20015;-77
2024/04/11 00:28:56;;;;;;;6.15;2.50;;;12.40;89.50;;;;;;5529625;25;20011;-77
2024/04/11 00:31:42;;;;;;;7.40;3.10;;;12.40;89.70;;;;;;5557946;25;20014;-76
2024/04/11 00:34:31;;;;;;;5.53;2.88;;;12.30;89.70;;;;;;5541678;25;19997;-77
2024/04/11 00:37:17;;;;;;;6.00;3.13;;;12.30;89.70;;;;;;5549078;25;20016;-76
2024/04/11 00:40:04;;;;;;;5.13;3.05;;;12.30;89.80;;;;;;5556029;25;20000;-76
2024/04/11 00:42:50;;;;;;;5.30;2.70;;;12.30;90.00;;;;;;5555110;25;20129;-77
2024/04/11 00:45:45;;;;;;;4.65;2.80;;;12.30;90.00;;;;;;5553712;25;20001;-76
2024/04/11 00:48:31;;;;;;;4.85;2.67;;;12.30;90.00;;;;;;5543471;25;20072;-77
2024/04/11 00:51:18;;;;;;;5.93;2.97;;;12.20;89.70;;;;;;5516278;25;19997;-76
2024/04/11 00:54:04;;;;;;;5.68;3.03;;;12.30;89.90;;;;;;5550478;25;20069;-76
2024/04/11 00:56:50;;;;;;;6.72;3.53;;;12.20;90.00;;;;;;5560538;25;20021;-77
2024/04/11 00:59:40;;;;;;;4.03;3.35;;;12.20;90.00;;;;;;5557076;25;20460;-76
2024/04/11 01:02:26;;;;;;;4.55;3.20;;;12.20;90.00;;;;;;5524011;25;20011;-77
2024/04/11 01:05:12;;;;;;;6.93;2.78;;;12.20;90.00;;;;;;5537006;25;20077;-76
2024/04/11 01:07:58;;;;;;;7.82;3.20;;;12.20;90.10;;;;;;5539257;25;20025;-76
2024/04/11 01:10:44;;;;;;;6.85;3.10;;;12.20;90.10;;;;;;5551073;25;20012;-76
2024/04/11 01:13:30;;;;;;;5.30;2.78;;;12.20;90.10;;;;;;5560459;25;20001;-76
2024/04/11 01:16:17;;;;;;;7.68;2.65;;;12.20;90.20;;;;;;5556773;25;20362;-76
2024/04/11 01:19:05;;;;;;;5.13;3.00;;;12.10;90.20;;;;;;5529863;25;20004;-76
2024/04/11 01:21:51;;;;;;;5.32;3.10;;;12.00;90.20;;;;;;5525009;25;20018;-77
2024/04/11 01:24:40;;;;;;;5.68;3.17;;;12.00;90.30;;;;;;5557057;25;20088;-76
2024/04/11 01:27:25;;;;;;;4.65;2.78;;;11.90;90.30;;;;;;5533056;25;19997;-78
2024/04/11 01:30:11;;;;;;;5.97;3.20;;;11.90;90.40;;;;;;5545276;25;19996;-78
2024/04/11 01:33:00;;;;;;;4.65;2.85;;;11.90;90.40;;;;;;5556547;25;20453;-78
2024/04/11 01:35:47;;;;;;;5.32;3.58;;;11.80;90.50;;;;;;5549080;25;20825;-78
2024/04/11 01:38:33;;;;;;;4.38;3.30;;;11.80;90.50;;;;;;5557963;25;19997;-77
2024/04/11 01:41:19;;;;;;;6.55;3.78;;;11.80;90.50;;;;;;5542741;25;20354;-78
2024/04/11 01:44:05;;;;;;;5.68;3.63;;;11.70;90.60;;;;;;5556621;25;20008;-77
2024/04/11 01:46:54;;;;;;;5.78;3.92;;;11.70;90.70;;;;;;5552423;25;20004;-77
2024/04/11 01:49:43;;;;;;;6.95;4.03;;;11.70;90.70;;;;;;5526703;25;20012;-77
2024/04/11 01:52:29;;;;;;;6.32;3.40;;;11.60;90.70;;;;;;5540765;25;19993;-77
2024/04/11 01:55:16;;;;;;;6.40;3.83;;;11.60;90.80;;;;;;5552293;25;20001;-77
2024/04/11 01:58:04;;;;;;;6.68;4.15;;;11.60;90.80;;;;;;5518596;25;20017;-77
2024/04/11 02:00:50;;;;;;;5.20;3.70;;;11.50;90.80;;;;;;5543856;25;20003;-76
2024/04/11 02:03:38;;;;;;;5.60;3.95;;;11.50;90.80;;;;;;5524060;25;20113;-76
2024/04/11 02:06:24;;;;;;;9.65;4.68;;;11.40;90.80;;;;;;5539446;25;19992;-74
2024/04/11 02:09:11;;;;;;;7.63;4.05;;;11.40;90.90;;;;;;5548291;25;19996;-77
2024/04/11 02:11:58;;;;;;;7.55;4.30;;;11.40;91.00;;;;;;5558087;25;20007;-76
2024/04/11 02:14:46;;;;;;;5.72;3.55;;;11.40;91.10;;;;;;5559485;25;20004;-76
2024/04/11 02:17:32;;;;;;;10.20;5.63;;;11.40;91.10;;;;;;5541582;25;20024;-76
2024/04/11 02:20:18;;;;;;;7.97;5.43;;;11.40;91.10;;;;;;5548354;25;19989;-75
2024/04/11 02:23:07;;;;;;;5.85;4.00;;;11.30;91.10;;;;;;5549954;25;20076;-76
2024/04/11 02:25:53;;;;;;;7.75;4.13;;;11.30;91.20;;;;;;5557582;25;19997;-76
2024/04/11 02:28:39;;;;;;;6.65;4.30;;;11.30;91.20;;;;;;5511513;25;20076;-76
2024/04/11 02:31:25;;;;;;;6.03;4.15;;;11.20;91.30;;;;;;5557983;25;20460;-76
2024/04/11 02:34:11;;;;;;;5.72;4.15;;;11.10;91.30;;;;;;5551489;25;20009;-76
2024/04/11 02:36:57;;;;;;;6.95;4.40;;;11.10;91.40;;;;;;5549187;25;19993;-75
2024/04/11 02:39:43;;;;;;;7.40;4.90;;;11.10;91.40;;;;;;5518878;25;20855;-77
2024/04/11 02:42:29;;;;;;;6.47;4.13;;;11.10;91.40;;;;;;5553119;25;20415;-78
2024/04/11 02:45:16;;;;;;;7.10;4.60;;;11.10;91.50;;;;;;5556239;25;20000;-77
2024/04/11 02:48:03;;;;;;;6.50;4.80;;;11.10;91.60;;;;;;5532929;25;20020;-77
2024/04/11 02:50:49;;;;;;;6.38;4.57;;;11.10;91.60;;;;;;5532144;25;20011;-78
2024/04/11 02:53:38;;;;;;;6.90;4.78;;;11.10;91.60;;;;;;5538037;25;20062;-76
2024/04/11 02:56:26;;;;;;;6.53;4.22;;;11.10;91.70;;;;;;5549386;25;20346;-77
2024/04/11 02:59:13;;;;;;;7.43;5.28;;;11.10;91.70;;;;;;5556438;25;20012;-77
2024/04/11 03:01:59;;;;;;;7.65;4.38;;;11.00;91.70;;;;;;5549662;25;20001;-78
2024/04/11 03:04:47;;;;;;;7.78;5.03;;;10.90;91.70;;;;;;5538875;25;19997;-73
2024/04/11 03:07:33;;;;;;;7.10;4.75;;;10.90;91.80;;;;;;5529382;25;19997;-73
2024/04/11 03:10:18;;;;;;;9.02;4.88;;;10.80;91.80;;;;;;5523872;25;19989;-72
2024/04/11 03:13:04;;;;;;;8.75;5.43;;;10.80;91.90;;;;;;5561448;25;20003;-73
2024/04/11 03:16:00;;;;;;;6.15;4.47;;;10.80;91.90;;;;;;5556567;25;20007;-73
2024/04/11 03:18:46;;;;;;;8.48;5.35;;;10.80;92.00;;;;;;5549723;25;20001;-73
2024/04/11 03:21:32;;;;;;;7.90;4.97;;;10.80;92.00;;;;;;5517697;25;20452;-72
2024/04/11 03:24:18;;;;;;;9.90;5.28;;;10.70;92.00;;;;;;5537139;25;20038;-73
2024/04/11 03:27:04;;;;;;;7.78;5.38;;;10.70;92.10;;;;;;5520777;25;20418;-72
2024/04/11 03:29:50;;;;;;;11.88;6.22;;;10.70;92.20;;;;;;5525374;25;20398;-73
2024/04/11 03:32:36;;;;;;;8.98;5.80;;;10.70;92.20;;;;;;5556874;25;19997;-71
2024/04/11 03:35:22;;;;;;;9.80;6.60;;;10.70;92.30;;;;;;5553644;25;20323;-72
2024/04/11 03:38:08;;;;;;;7.28;6.00;;;10.60;92.30;;;;;;5556921;25;20011;-71
2024/04/11 03:41:08;;;;;;;9.48;5.55;;;10.60;92.30;;;;;;5548354;25;20069;-74
2024/04/11 03:43:55;;;;;;;11.68;5.47;;;10.60;92.40;;;;;;5522905;25;20005;-74
2024/04/11 03:46:41;;;;;;;7.88;5.32;;;10.60;92.60;;;;;;5528948;25;19995;-74
2024/04/11 03:49:28;;;;;;;7.20;4.75;;;10.50;92.40;;;;;;5558469;25;20072;-74
2024/04/11 03:52:16;;;;;;;8.30;5.95;;;10.50;92.50;;;;;;5563109;25;20024;-74
2024/04/11 03:55:02;;;;;;;8.52;5.32;;;10.50;92.50;;;;;;5556481;25;20012;-74
2024/04/11 03:57:49;;;;;;;6.65;4.97;;;10.40;92.60;;;;;;5520741;25;20347;-75
2024/04/11 04:00:35;;;;;;;8.52;5.57;;;10.50;92.70;;;;;;5505577;25;20009;-75
2024/04/11 04:03:22;;;;;;;7.90;5.05;;;10.50;92.80;;;;;;5534149;25;19997;-77
2024/04/11 04:06:10;;;;;;;8.95;5.75;;;10.50;92.80;;;;;;5547807;25;20007;-71
2024/04/11 04:08:57;;;;;;;7.32;4.57;;;10.50;92.90;;;;;;5550325;25;20072;-74
2024/04/11 04:11:43;;;;;;;6.95;4.78;;;10.50;93.00;;;;;;5562341;25;20008;-75
2024/04/11 04:14:29;;;;;;;8.82;5.53;;;10.60;93.00;;;;;;5559438;25;20037;-75
2024/04/11 04:17:16;;;;;;;9.18;4.45;;;10.60;93.00;;;;;;5546193;25;20097;-74
2024/04/11 04:20:03;;;;;;;6.40;4.88;;;10.60;93.00;;;;;;5547426;25;19989;-70
2024/04/11 04:22:49;;;;;;;14.65;5.18;;;10.60;93.00;;;;;;5535668;25;20001;-72
2024/04/11 04:25:38;;;;;;;9.05;4.70;;;10.60;93.00;;;;;;5556082;25;20004;-72
2024/04/11 04:28:24;;;;;;;7.93;5.82;;;10.60;93.00;;;;;;5512303;25;19993;-72
2024/04/11 04:31:10;;;;;;;10.02;5.60;;;10.60;93.10;;;;;;5516004;25;20001;-76
2024/04/11 04:34:01;;;;;;;12.57;4.68;;;10.60;93.00;;;;;;5522694;25;20001;-76
2024/04/11 04:36:47;;;;;;;10.88;6.38;;;10.50;93.10;;;;;;5554197;25;19993;-76
2024/04/11 04:39:41;;;;;;;10.25;6.05;;;10.50;93.10;;;;;;5522753;25;20124;-77
2024/04/11 04:42:28;;;;;;;8.38;6.07;;;10.60;93.20;;;;;;5514131;25;20004;-76
2024/04/11 04:45:15;;;;;;;10.25;5.60;;;10.60;93.20;;;;;;5558669;25;20445;-77
2024/04/11 04:48:02;;;;;;;12.02;6.65;;;10.60;93.10;;;;;;5560582;25;20352;-76
2024/04/11 04:50:48;;;;;;;12.35;5.90;;;10.60;93.10;;;;;;5552833;25;20029;-75
2024/04/11 04:53:34;;;;;;;12.63;6.30;;;10.60;93.10;;;;;;5526607;25;20004;-75
2024/04/11 04:56:23;;;;;;;9.20;5.38;;;10.60;93.20;;;;;;5539411;25;19994;-75
2024/04/11 04:59:09;;;;;;;10.40;6.03;;;10.60;93.20;;;;;;5520604;25;20045;-74
2024/04/11 05:01:55;;;;;;;8.43;5.55;;;10.60;93.20;;;;;;5539924;25;20084;-75
2024/04/11 05:04:41;;;;;;;10.15;5.30;;;10.60;93.30;;;;;;5558971;25;20007;-74
2024/04/11 05:07:28;;;;;;;6.90;5.45;;;10.60;93.30;;;;;;5536871;25;19997;-75
2024/04/11 05:10:14;;;;;;;8.48;5.75;;;10.60;93.30;;;;;;5497831;25;20004;-77
2024/04/11 05:13:01;;;;;;;11.55;5.80;;;10.60;93.30;;;;;;5539766;25;20001;-78
2024/04/11 05:15:59;;;;;;;7.85;5.38;;;10.60;93.40;;;;;;5521136;25;20004;-77
2024/04/11 05:18:46;;;;;;;8.25;5.70;;;10.70;93.40;;;;;;5507251;25;20004;-77
2024/04/11 05:21:32;;;;;;;10.15;5.15;;;10.80;93.30;;;;;;5554076;25;20001;-77
2024/04/11 05:24:18;;;;;;;7.57;5.78;;;10.80;93.30;;;;;;5545894;25;19994;-79
2024/04/11 05:27:05;;;;;;;9.43;6.22;;;10.80;93.30;;;;;;5548179;25;20642;-80
2024/04/11 05:29:51;;;;;;;10.40;6.18;;;10.90;93.20;;;;;;5551917;25;19997;-78
2024/04/11 05:32:43;;;;;;;8.52;5.25;;;10.90;93.20;;;;;;5525515;25;19993;-78
2024/04/11 05:35:29;;;;;;;8.93;5.70;;;10.90;93.30;;;;;;5528830;25;19996;-79
2024/04/11 05:38:15;;;;;;;12.25;5.70;;;10.90;93.30;;;;;;5524927;25;20000;-79
2024/04/11 05:41:01;;;;;;;10.50;5.75;;;11.00;93.30;;;;;;5555762;25;20457;-78
2024/04/11 05:43:49;;;;;;;11.50;6.05;;;11.00;93.30;;;;;;5534773;25;19997;-77
2024/04/11 05:46:35;;;;;;;9.90;5.93;;;11.00;93.30;;;;;;5528079;25;20335;-79
2024/04/11 05:49:22;;;;;;;11.88;5.85;;;11.10;93.30;;;;;;5557935;25;20417;-78
2024/04/11 05:52:08;;;;;;;9.95;5.75;;;11.10;93.30;;;;;;5559877;25;20008;-78
2024/04/11 05:54:54;;;;;;;10.35;5.75;;;11.20;93.30;;;;;;5538034;25;20001;-78
2024/04/11 05:57:43;;;;;;;10.80;6.05;;;11.20;93.30;;;;;;5511082;25;20052;-79
2024/04/11 06:00:29;;;;;;;10.95;5.70;;;11.30;93.30;;;;;;5543087;25;20037;-79
2024/04/11 06:03:16;;;;;;;11.38;5.82;;;11.30;93.30;;;;;;5555627;25;20008;-79
2024/04/11 06:06:03;;;;;;;7.82;5.38;;;11.40;93.30;;;;;;5548124;25;20056;-78
2024/04/11 06:08:55;;;;;;;10.88;4.95;;;11.40;93.20;;;;;;5550441;25;20105;-78
2024/04/11 06:11:41;;;;;;;10.63;6.35;;;11.50;93.10;;;;;;5530158;25;20031;-78
2024/04/11 06:14:28;;;;;;;10.90;7.00;;;11.50;93.10;;;;;;5557294;25;20076;-79
2024/04/11 06:17:14;;;;;;;7.68;5.85;;;11.60;93.10;;;;;;5531007;25;20038;-79
2024/04/11 06:20:01;;;;;;;11.13;5.97;;;11.70;93.00;;;;;;5512545;25;20013;-81
2024/04/11 06:22:59;;;;;;;8.10;5.68;;;11.70;93.00;;;;;;5509507;25;20004;-77
2024/04/11 06:25:46;;;;;;;8.52;5.43;;;11.80;93.00;;;;;;5541906;25;20000;-81
2024/04/11 06:28:33;;;;;;;10.10;5.18;;;11.90;93.00;;;;;;5557244;25;19992;-81
2024/04/11 06:31:24;;;;;;;9.50;6.15;;;12.00;93.00;;;;;;5551763;25;20316;-81
2024/04/11 06:34:10;;;;;;;10.68;5.80;;;12.00;93.00;;;;;;5529288;25;20366;-82
2024/04/11 06:36:56;;;;;;;11.00;5.30;;;12.10;92.80;;;;;;5508149;25;20530;-81
2024/04/11 06:39:43;;;;;;;9.18;5.13;;;12.10;92.80;;;;;;5529189;25;20468;-81
2024/04/11 06:42:29;;;;;;;9.25;5.38;;;12.20;92.70;;;;;;5557952;25;20001;-82
2024/04/11 06:45:21;;;;;;;11.55;5.68;;;12.30;92.60;;;;;;5551668;25;20061;-80
2024/04/11 06:48:08;;;;;;;8.07;4.97;;;12.40;92.50;;;;;;5555819;25;20001;-74
2024/04/11 06:50:58;;;;;;;9.00;5.40;;;12.50;92.40;;;;;;5535547;25;20029;-82
2024/04/11 06:53:44;;;;;;;7.20;4.90;;;12.50;92.30;;;;;;5538995;25;20001;-82
2024/04/11 06:56:30;;;;;;;9.95;5.15;;;12.60;92.30;;;;;;5557447;25;20467;-81
2024/04/11 06:59:17;;;;;;;10.18;4.78;;;12.70;92.20;;;;;;5553125;25;20016;-82
2024/04/11 07:02:07;;;;;;;11.20;5.78;;;12.80;92.10;;;;;;5542422;25;20060;-80
2024/04/11 07:04:54;;;;;;;11.02;5.75;;;12.90;92.00;;;;;;5533299;25;19997;-79
2024/04/11 07:07:41;;;;;;;16.50;5.65;;;12.90;91.90;;;;;;5525649;25;19990;-80
2024/04/11 07:10:36;;;;;;;8.45;5.55;;;13.00;91.80;;;;;;5524616;25;20528;-80
2024/04/11 07:13:23;;;;;;;8.90;5.43;;;13.10;91.70;;;;;;5524466;25;19993;-80
2024/04/11 07:16:09;;;;;;;8.88;5.63;;;13.20;91.50;;;;;;5502073;25;20332;-79
2024/04/11 07:18:55;;;;;;;8.90;5.28;;;13.30;91.50;;;;;;5545270;25;20012;-81
2024/04/11 07:21:43;;;;;;;9.68;5.72;;;13.40;91.30;;;;;;5516940;25;20120;-80
2024/04/11 07:24:29;;;;;;;7.57;5.03;;;13.50;91.20;;;;;;5525552;25;20012;-79
2024/04/11 07:27:17;;;;;;;8.77;4.78;;;13.60;91.10;;;;;;5552051;25;20329;-79
2024/04/11 07:30:11;;;;;;;9.60;5.28;;;13.70;91.30;;;;;;5533327;25;19993;-80
2024/04/11 07:32:57;;;;;;;10.90;5.77;;;13.90;91.10;;;;;;5517005;25;19996;-78
2024/04/11 07:35:44;;;;;;;10.30;4.93;;;14.00;91.10;;;;;;5554204;25;20689;-80
2024/04/11 07:38:30;;;;;;;7.40;4.40;;;14.10;90.90;;;;;;5542524;25;20004;-83
2024/04/11 07:41:16;;;;;;;7.22;4.63;;;14.20;90.60;;;;;;5526050;25;20009;-83
2024/04/11 07:44:05;;;;;;;6.97;3.63;;;14.30;90.40;;;;;;5532941;25;19989;-82
2024/04/11 07:46:54;;;;;;;8.10;3.83;;;14.40;90.20;;;;;;5534588;25;20005;-83
2024/04/11 07:49:40;;;;;;;7.68;3.97;;;14.50;90.10;;;;;;5553436;25;19997;-82
2024/04/11 07:52:27;;;;;;;7.93;4.50;;;14.60;90.00;;;;;;5556023;25;20008;-84
2024/04/11 07:55:14;;;;;;;7.55;3.30;;;14.70;89.60;;;;;;5532075;25;20001;-83
2024/04/11 07:58:05;;;;;;;6.88;3.70;;;14.80;89.30;;;;;;5551990;25;20000;-82
2024/04/11 08:00:54;;;;;;;11.85;3.80;;;14.90;88.80;;;;;;5518837;25;19997;-83
2024/04/11 08:03:41;;;;;;;4.68;3.28;;;15.00;88.30;;;;;;5554089;25;20042;-82
2024/04/11 08:06:28;;;;;;;7.13;3.30;;;15.10;87.90;;;;;;5536323;25;20301;-83
2024/04/11 08:09:14;;;;;;;6.03;2.63;;;15.10;87.40;;;;;;5527418;25;20029;-83
2024/04/11 08:12:00;;;;;;;5.13;2.83;;;15.20;87.10;;;;;;5540766;25;20006;-83
2024/04/11 08:14:46;;;;;;;4.72;2.45;;;15.30;86.60;;;;;;5543703;25;20013;-82
2024/04/11 08:17:32;;;;;;;7.97;2.58;;;15.30;86.10;;;;;;5534558;25;19996;-84
2024/04/11 08:20:19;;;;;;;5.70;2.30;;;15.40;85.70;;;;;;5521237;25;20008;-84
2024/04/11 08:23:08;;;;;;;4.07;2.30;;;15.50;84.90;;;;;;5555730;25;20069;-83
2024/04/11 08:25:55;;;;;;;4.35;2.33;;;15.60;84.20;;;;;;5530317;25;19999;-83
2024/04/11 08:28:43;;;;;;;6.15;2.05;;;15.60;83.70;;;;;;5558431;25;20000;-84
2024/04/11 08:31:30;;;;;;;6.50;1.77;;;15.70;82.90;;;;;;5537716;25;20004;-83
2024/04/11 08:34:18;;;;;;;5.40;2.30;;;15.80;82.60;;;;;;5542884;25;19996;-75
2024/04/11 08:37:04;;;;;;;6.53;1.67;;;15.90;81.70;;;;;;5559387;25;20013;-74
2024/04/11 08:39:50;;;;;;;3.63;1.67;;;16.00;81.00;;;;;;5541016;25;20001;-74
2024/04/11 08:42:38;;;;;;;4.32;1.90;;;16.10;80.80;;;;;;5523338;25;20012;-74
2024/04/11 08:45:28;;;;;;;5.03;1.88;;;16.20;80.00;;;;;;5557750;25;20004;-73
2024/04/11 08:48:14;;;;;;;3.13;1.80;;;16.30;79.50;;;;;;5547008;25;20016;-75
2024/04/11 08:51:04;;;;;;;6.03;1.83;;;16.40;79.10;;;;;;5516253;25;20015;-75
2024/04/11 08:53:54;;;;;;;5.22;1.80;;;16.50;78.20;;;;;;5531609;25;19988;-75
2024/04/11 08:56:42;;;;;;;4.25;1.80;;;16.60;77.90;;;;;;5527235;25;20008;-74
2024/04/11 08:59:29;;;;;;;4.20;1.70;;;16.80;77.30;;;;;;5521434;25;20036;-75
2024/04/11 09:02:15;;;;;;;3.10;1.60;;;16.80;77.00;;;;;;5541688;25;20962;-74
2024/04/11 09:05:05;;;;;;;3.67;2.05;;;17.00;76.40;;;;;;5525725;25;19989;-75
2024/04/11 09:07:51;;;;;;;5.55;2.45;;;17.00;76.00;;;;;;5520273;25;20011;-74
2024/04/11 09:10:38;;;;;;;3.90;2.00;;;17.20;75.80;;;;;;5517914;25;20025;-74
2024/04/11 09:13:25;;;;;;;6.43;2.35;;;17.20;75.40;;;;;;5532367;25;20367;-74
2024/04/11 09:16:12;;;;;;;6.43;2.30;;;17.30;75.40;;;;;;5527506;25;20030;-74
2024/04/11 09:19:07;;;;;;;4.22;2.28;;;17.40;75.30;;;;;;5523290;25;19989;-75
2024/04/11 09:21:53;;;;;;;5.20;2.15;;;17.40;74.50;;;;;;5552408;25;20362;-74
2024/04/11 09:24:41;;;;;;;4.97;2.20;;;17.50;74.40;;;;;;5546236;25;20506;-74
2024/04/11 09:27:27;;;;;;;2.60;1.40;;;17.60;73.80;;;;;;5530855;25;20072;-74
2024/04/11 09:30:13;;;;;;;2.28;1.73;;;17.70;73.40;;;;;;5534604;25;20024;-75
2024/04/11 09:33:04;;;;;;;3.72;1.70;;;17.80;73.20;;;;;;5554124;25;20457;-74
2024/04/11 09:35:53;;;;;;;2.53;1.45;;;17.90;72.60;;;;;;5550687;25;19989;-73
2024/04/11 09:38:42;;;;;;;2.95;1.55;;;18.00;72.30;;;;;;5539942;25;19996;-74
2024/04/11 09:41:28;;;;;;;4.60;1.70;;;18.20;72.10;;;;;;5495939;25;20022;-74
2024/04/11 09:44:19;;;;;;;3.67;2.35;;;18.30;71.90;;;;;;5521062;25;20065;-79
2024/04/11 09:47:09;;;;;;;2.63;1.83;;;18.50;71.70;;;;;;5526119;25;20007;-79
2024/04/11 09:50:04;;;;;;;3.40;1.33;;;18.60;71.40;;;;;;5558919;25;19997;-80
2024/04/11 09:52:53;;;;;;;4.35;1.40;;;18.70;70.30;;;;;;5523210;25;20012;-80
2024/04/11 09:55:40;;;;;;;1.60;1.10;;;18.80;69.30;;;;;;5519873;25;20000;-79
2024/04/11 09:58:30;;;;;;;4.22;1.17;;;18.80;68.60;;;;;;5557455;25;20018;-80
2024/04/11 10:01:32;;;;;;;7.95;2.03;;;19.00;68.30;;;;;;5505464;25;20453;-79
2024/04/11 10:04:35;;;;;;;3.30;1.13;;;19.00;67.60;;;;;;5548349;25;21051;-77
2024/04/11 10:07:25;;;;;;;2.05;1.48;;;19.10;67.60;;;;;;5556393;25;19996;-78
2024/04/11 10:10:26;;;;;;;4.88;1.35;;;19.10;67.10;;;;;;5552964;25;20495;-78
2024/04/11 10:13:12;;;;;;;2.38;1.20;;;19.20;66.90;;;;;;5529725;25;20053;-77
2024/04/11 10:16:33;;;;;;;6.05;1.80;;;19.20;66.30;;;;;;5542623;25;21343;-77
2024/04/11 10:19:26;;;;;;;2.70;1.33;;;19.30;66.70;;;;;;5548712;25;20314;-77
2024/04/11 10:22:15;;;;;;;4.65;2.40;;;19.30;65.60;;;;;;5533756;25;20001;-77
2024/04/11 10:25:06;;;;;;;6.05;1.30;;;19.40;65.10;;;;;;5540436;25;19998;-78
2024/04/11 10:27:52;;;;;;;2.03;1.20;;;19.40;64.40;;;;;;5538872;25;20456;-77
2024/04/11 10:30:40;;;;;;;2.90;1.38;;;19.50;64.20;;;;;;5542887;25;20456;-87
2024/04/11 10:33:29;;;;;;;4.25;1.42;;;19.50;64.00;;;;;;5542335;25;19996;-77
2024/04/11 10:36:17;;;;;;;5.57;1.00;;;19.60;64.80;;;;;;5554136;25;20004;-76
2024/04/11 10:39:08;;;;;;;3.88;1.50;;;19.60;63.60;;;;;;5543400;25;19992;-75
2024/04/11 10:41:56;;;;;;;5.78;1.30;;;19.60;63.30;;;;;;5485064;25;20011;-76
2024/04/11 10:44:45;;;;;;;2.58;1.88;;;19.70;63.00;;;;;;5540563;25;20001;-79
2024/04/11 10:47:31;;;;;;;2.10;1.20;;;19.70;62.50;;;;;;5546275;25;20005;-78
2024/04/11 10:50:17;;;;;;;3.08;1.80;;;19.70;62.50;;;;;;5526362;25;20015;-80
2024/04/11 10:53:03;;;;;;;3.58;1.75;;;19.80;62.70;;;;;;5543563;25;20001;-78
2024/04/11 10:55:49;;;;;;;3.20;1.48;;;19.80;62.20;;;;;;5536280;25;20458;-83
2024/04/11 10:58:36;;;;;;;3.05;1.35;;;19.90;62.20;;;;;;5552128;25;20331;-84
2024/04/11 11:01:28;;;;;;;3.45;1.65;;;19.90;62.30;;;;;;5544608;25;20000;-84
2024/04/11 11:04:16;;;;;;;4.38;1.90;;;20.00;62.40;;;;;;5557295;25;20004;-85
2024/04/11 11:07:11;;;;;;;2.55;1.50;;;20.10;61.80;;;;;;5556320;25;20091;-84
2024/04/11 11:09:57;;;;;;;3.90;1.33;;;20.20;61.70;;;;;;5529548;25;20473;-84
2024/04/11 11:12:44;;;;;;;3.15;1.50;;;20.20;61.60;;;;;;5522316;25;20323;-84
2024/04/11 11:15:31;;;;;;;3.47;1.58;;;20.20;61.50;;;;;;5556378;25;20033;-74
2024/04/11 11:18:16;;;;;;;5.00;1.80;;;20.20;61.50;;;;;;5543999;25;19993;-81
2024/04/11 11:21:07;;;;;;;3.40;1.50;;;20.20;61.80;;;;;;5554465;25;19994;-82
2024/04/11 11:24:06;;;;;;;4.00;1.65;;;20.20;61.70;;;;;;5524314;25;20008;-82
2024/04/11 11:26:55;;;;;;;6.10;1.67;;;20.30;61.60;;;;;;5511323;25;20008;-81
2024/04/11 11:29:42;;;;;;;3.22;1.60;;;20.20;61.40;;;;;;5512047;25;20333;-81
2024/04/11 11:32:32;;;;;;;5.30;1.70;;;20.20;61.30;;;;;;5539795;25;20008;-81
2024/04/11 11:35:18;;;;;;;4.90;2.10;;;20.20;61.30;;;;;;5526703;25;19997;-81
2024/04/11 11:38:05;;;;;;;3.63;1.58;;;20.20;61.30;;;;;;5563693;25;20350;-80
2024/04/11 11:40:54;;;;;;;2.75;1.40;;;20.20;61.30;;;;;;5560969;25;20000;-80
2024/04/11 11:43:43;;;;;;;4.90;1.65;;;20.20;61.30;;;;;;5529057;25;20091;-80
2024/04/11 11:46:30;;;;;;;3.35;1.35;;;20.30;61.20;;;;;;5520833;25;20008;-80
2024/04/11 11:49:23;;;;;;;2.95;1.20;;;20.30;61.00;;;;;;5544142;25;20003;-81
2024/04/11 11:52:13;;;;;;;2.03;1.00;;;20.30;61.00;;;;;;5517896;25;19993;-80
2024/04/11 11:54:59;;;;;;;2.83;1.30;;;20.40;61.00;;;;;;5554294;25;20298;-80
2024/04/11 11:57:55;;;;;;;3.58;1.50;;;20.40;60.90;;;;;;5550975;25;20028;-82
2024/04/11 12:00:49;;;;;;;4.55;1.88;;;20.40;61.10;;;;;;5542727;25;20542;-83
2024/04/11 12:03:37;;;;;;;6.97;1.50;;;20.40;61.50;;;;;;5529027;25;19997;-79
2024/04/11 12:06:23;;;;;;;3.85;2.05;;;20.50;61.40;;;;;;5554237;25;20005;-78
2024/04/11 12:09:11;;;;;;;3.10;1.48;;;20.50;61.20;;;;;;5555165;25;20001;-80
2024/04/11 12:15:04;;;;;;;3.35;1.60;;;20.60;61.40;;;;;;5536389;25;20000;-80
2024/04/11 12:17:50;;;;;;;3.13;1.00;;;20.60;61.40;;;;;;5524996;25;20000;-78
2024/04/11 12:20:36;;;;;;;3.78;1.60;;;20.70;61.10;;;;;;5524951;25;19997;-82
2024/04/11 12:23:23;;;;;;;2.95;1.75;;;20.70;60.90;;;;;;5518800;25;19993;-82
2024/04/11 12:26:12;;;;;;;4.72;1.90;;;20.70;60.60;;;;;;5504770;25;20024;-84
2024/04/11 12:28:58;;;;;;;12.02;1.80;;;20.70;60.70;;;;;;5518754;25;20016;-80
2024/04/11 12:31:44;;;;;;;4.13;1.80;;;20.70;60.60;;;;;;5546801;25;20003;-80
2024/04/11 12:34:33;;;;;;;6.07;1.50;;;20.60;59.80;;;;;;5558621;25;19996;-80
2024/04/11 12:37:24;;;;;;;2.92;1.17;;;20.60;59.50;;;;;;5551864;25;20059;-81
2024/04/11 12:40:13;;;;;;;4.22;1.00;;;20.60;58.40;;;;;;5582572;25;20332;-80
2024/04/11 12:43:01;;;;;;;3.78;1.48;;;20.60;58.30;;;;;;5509638;25;20439;-80
2024/04/11 12:45:53;;;;;;;2.00;1.38;;;20.60;58.20;;;;;;5525281;25;20005;-78
2024/04/11 12:48:40;;;;;;;3.33;1.15;;;20.70;58.10;;;;;;5531979;25;19993;-80
2024/04/11 12:51:30;;;;;;;2.92;1.52;;;20.70;58.20;;;;;;5554604;25;20005;-82
2024/04/11 12:54:16;;;;;;;3.03;1.38;;;20.70;57.90;;;;;;5526076;25;20005;-81
2024/04/11 12:57:04;;;;;;;2.20;1.13;;;20.70;58.10;;;;;;5549298;25;20000;-80
2024/04/11 12:59:50;;;;;;;2.45;1.35;;;20.70;58.20;;;;;;5549983;25;20545;-82
2024/04/11 13:02:39;;;;;;;3.58;1.33;;;20.80;58.40;;;;;;5558005;25;20478;-80
2024/04/11 13:05:25;;;;;;;4.63;1.40;;;20.80;58.30;;;;;;5521848;25;19997;-82
2024/04/11 13:08:29;;;;;;;2.88;1.50;;;20.80;58.20;;;;;;5543873;25;19993;-82
2024/04/11 13:11:37;;;;;;;2.35;1.40;;;20.90;58.10;;;;;;5520501;25;20345;-82
2024/04/11 13:14:27;;;;;;;6.35;1.63;;;20.80;58.30;;;;;;5557546;25;19996;-84
2024/04/11 13:17:13;;;;;;;3.97;1.65;;;20.90;57.70;;;;;;5527221;25;20033;-81
2024/04/11 13:20:11;;;;;;;3.72;1.02;;;20.80;57.40;;;;;;5549268;25;20075;-81
2024/04/11 13:23:09;;;;;;;2.97;1.20;;;20.90;57.10;;;;;;5524053;25;20452;-83
2024/04/11 13:25:57;;;;;;;1.80;1.40;;;20.80;57.10;;;;;;5546701;25;19997;-82
2024/04/11 13:28:49;;;;;;;2.80;1.85;;;20.70;57.20;;;;;;5554008;25;19997;-80
2024/04/11 13:31:35;;;;;;;5.60;1.45;;;20.70;57.00;;;;;;5555058;25;20008;-81
2024/04/11 13:34:38;;;;;;;3.10;1.50;;;20.60;57.10;;;;;;5554846;25;20369;-79
2024/04/11 13:37:24;;;;;;;6.18;1.55;;;20.60;57.40;;;;;;5518569;25;20003;-81
2024/04/11 13:43:17;;;;;;;4.05;1.50;;;20.60;57.50;;;;;;5554232;25;20033;-79
2024/04/11 13:46:07;;;;;;;3.72;1.40;;;20.60;57.60;;;;;;5543862;25;20433;-81
2024/04/11 13:48:53;;;;;;;2.95;1.45;;;20.60;58.40;;;;;;5531714;25;20083;-80
2024/04/11 13:51:44;;;;;;;2.33;1.30;;;20.50;57.80;;;;;;5554799;25;19997;-81
2024/04/11 13:54:31;;;;;;;1.42;1.02;;;20.50;57.80;;;;;;5519472;25;20113;-81
2024/04/11 13:57:23;;;;;;;3.78;1.30;;;20.40;57.60;;;;;;5539106;25;19997;-80
2024/04/11 14:00:10;;;;;;;3.72;1.25;;;20.40;57.80;;;;;;5510078;25;19993;-80
2024/04/11 14:02:58;;;;;;;3.45;1.80;;;20.30;57.90;;;;;;5503859;25;20447;-82
2024/04/11 14:05:59;;;;;;;3.65;1.85;;;20.30;58.70;;;;;;5519173;26;19994;-79
2024/04/11 14:08:45;;;;;;;4.90;1.55;;;20.30;58.10;;;;;;5555454;25;20373;-81
2024/04/11 14:11:34;;;;;;;4.07;1.70;;;20.30;58.10;;;;;;5572389;25;19996;-80
2024/04/11 14:14:26;;;;;;;2.90;2.00;;;20.30;58.10;;;;;;5561210;25;20008;-79
2024/04/11 14:17:22;;;;;;;2.75;1.45;;;20.20;58.20;;;;;;5527812;25;20068;-80
2024/04/11 14:23:22;;;;;;;4.43;1.25;;;20.30;58.30;;;;;;5541302;25;19997;-80
2024/04/11 14:26:08;;;;;;;2.80;1.40;;;20.30;58.30;;;;;;5556859;25;20042;-81
2024/04/11 14:28:55;;;;;;;2.38;1.48;;;20.30;58.40;;;;;;5520369;25;20073;-81
2024/04/11 14:31:42;;;;;;;1.98;1.10;;;20.40;58.60;;;;;;5553589;25;20001;-79
2024/04/11 14:38:19;;;;;;;3.25;1.60;;;20.40;58.70;;;;;;5556407;25;20068;-82
2024/04/11 14:40:40;;;;;;;2.13;1.50;;;20.50;59.40;;;;;;5548460;25;20019;-79
2024/04/11 14:43:30;;;;;;;4.15;1.50;;;20.50;60.10;;;;;;5521839;25;19996;-80
2024/04/11 14:46:16;;;;;;;5.22;1.70;;;20.40;60.10;;;;;;5548690;25;20004;-71